sensor_id;sensor_type;location;lat;lon;timestamp;pressure;altitude;pressure_sealevel;temperature;humidity
48778;BME280;34578;0.000;0.000;2023-04-20T00:01:29;96438.53;;;17.26;58.68
48778;BME280;34578;0.000;0.000;2023-04-20T00:06:29;96425.91;;;17.23;58.21
48778;BME280;34578;0.000;0.000;2023-04-20T00:11:32;96414.06;;;17.22;58.70
48778;BME280;34578;0.000;0.000;2023-04-20T00:16:32;96406.50;;;17.20;58.31
48778;BME280;34578;0.000;0.000;2023-04-20T00:21:33;96409.88;;;17.22;58.78
48778;BME280;34578;0.000;0.000;2023-04-20T00:26:33;96393.00;;;17.23;58.29
48778;BME280;34578;0.000;0.000;2023-04-20T00:31:34;96388.78;;;17.23;58.56
48778;BME280;34578;0.000;0.000;2023-04-20T00:36:35;96379.50;;;17.24;57.47
48778;BME280;34578;0.000;0.000;2023-04-20T00:41:35;96366.88;;;17.24;59.21
48778;BME280;34578;0.000;0.000;2023-04-20T00:46:36;96366.03;;;17.25;59.34
48778;BME280;34578;0.000;0.000;2023-04-20T00:51:38;96357.59;;;17.26;59.25
48778;BME280;34578;0.000;0.000;2023-04-20T00:56:38;96349.16;;;17.27;58.14
48778;BME280;34578;0.000;0.000;2023-04-20T01:01:41;96349.16;;;17.24;57.87
48778;BME280;34578;0.000;0.000;2023-04-20T01:06:41;96337.34;;;17.23;59.02
48778;BME280;34578;0.000;0.000;2023-04-20T01:11:42;96323.88;;;17.24;57.92
48778;BME280;34578;0.000;0.000;2023-04-20T01:16:42;96332.31;;;17.23;58.29
48778;BME280;34578;0.000;0.000;2023-04-20T01:21:46;96310.34;;;17.22;58.45
48778;BME280;34578;0.000;0.000;2023-04-20T01:26:47;96318.78;;;17.22;57.82
48778;BME280;34578;0.000;0.000;2023-04-20T01:31:47;96312.06;;;17.23;58.31
48778;BME280;34578;0.000;0.000;2023-04-20T01:36:47;96304.47;;;17.21;58.26
48778;BME280;34578;0.000;0.000;2023-04-20T01:41:48;96304.47;;;17.21;58.47
48778;BME280;34578;0.000;0.000;2023-04-20T01:46:48;96302.78;;;17.20;59.43
48778;BME280;34578;0.000;0.000;2023-04-20T01:51:48;96290.13;;;17.23;58.77
48778;BME280;34578;0.000;0.000;2023-04-20T01:56:49;96282.53;;;17.22;58.63
48778;BME280;34578;0.000;0.000;2023-04-20T02:01:49;96290.13;;;17.25;58.32
48778;BME280;34578;0.000;0.000;2023-04-20T02:06:50;96280.84;;;17.24;57.70
48778;BME280;34578;0.000;0.000;2023-04-20T02:11:50;96274.94;;;17.22;58.08
48778;BME280;34578;0.000;0.000;2023-04-20T02:16:50;96265.66;;;17.22;57.99
48778;BME280;34578;0.000;0.000;2023-04-20T02:21:52;96252.16;;;17.22;58.70
48778;BME280;34578;0.000;0.000;2023-04-20T02:26:52;96237.84;;;17.21;58.22
48778;BME280;34578;0.000;0.000;2023-04-20T02:31:53;96235.31;;;17.22;57.33
48778;BME280;34578;0.000;0.000;2023-04-20T02:36:53;96233.63;;;17.24;57.40
48778;BME280;34578;0.000;0.000;2023-04-20T02:41:53;96234.47;;;17.25;57.55
48778;BME280;34578;0.000;0.000;2023-04-20T02:46:54;96228.56;;;17.24;57.16
48778;BME280;34578;0.000;0.000;2023-04-20T02:51:57;96224.31;;;17.26;58.37
48778;BME280;34578;0.000;0.000;2023-04-20T02:56:57;96220.97;;;17.27;58.57
48778;BME280;34578;0.000;0.000;2023-04-20T03:01:58;96225.16;;;17.30;57.33
48778;BME280;34578;0.000;0.000;2023-04-20T03:06:59;96215.06;;;17.28;57.04
48778;BME280;34578;0.000;0.000;2023-04-20T03:12:03;96216.75;;;17.28;57.68
48778;BME280;34578;0.000;0.000;2023-04-20T03:17:19;96215.91;;;17.26;57.38
48778;BME280;34578;0.000;0.000;2023-04-20T03:22:20;96206.63;;;17.23;57.43
48778;BME280;34578;0.000;0.000;2023-04-20T03:27:23;96206.63;;;17.23;57.34
48778;BME280;34578;0.000;0.000;2023-04-20T03:32:37;96205.81;;;17.23;56.92
48778;BME280;34578;0.000;0.000;2023-04-20T03:37:37;96199.03;;;17.22;57.92
48778;BME280;34578;0.000;0.000;2023-04-20T03:42:40;96198.22;;;17.21;57.58
48778;BME280;34578;0.000;0.000;2023-04-20T03:47:40;96201.59;;;17.23;57.11
48778;BME280;34578;0.000;0.000;2023-04-20T03:52:41;96192.31;;;17.24;58.10
48778;BME280;34578;0.000;0.000;2023-04-20T03:57:42;96177.13;;;17.24;58.81
48778;BME280;34578;0.000;0.000;2023-04-20T04:02:43;96181.31;;;17.26;57.70
48778;BME280;34578;0.000;0.000;2023-04-20T04:07:43;96184.69;;;17.25;57.14
48778;BME280;34578;0.000;0.000;2023-04-20T04:12:46;96172.91;;;17.20;57.20
48778;BME280;34578;0.000;0.000;2023-04-20T04:17:47;96183.88;;;17.22;57.62
48778;BME280;34578;0.000;0.000;2023-04-20T04:22:48;96183.91;;;17.20;57.86
48778;BME280;34578;0.000;0.000;2023-04-20T04:28:17;96179.69;;;17.18;58.42
48778;BME280;34578;0.000;0.000;2023-04-20T04:33:29;96180.53;;;17.17;58.83
48778;BME280;34578;0.000;0.000;2023-04-20T04:38:31;96178.00;;;17.17;58.54
48778;BME280;34578;0.000;0.000;2023-04-20T04:43:32;96170.41;;;17.21;57.38
48778;BME280;34578;0.000;0.000;2023-04-20T04:48:42;96172.09;;;17.24;57.73
48778;BME280;34578;0.000;0.000;2023-04-20T04:53:43;96177.16;;;17.18;58.63
48778;BME280;34578;0.000;0.000;2023-04-20T04:58:45;96178.81;;;17.31;58.57
48778;BME280;34578;0.000;0.000;2023-04-20T05:03:46;96173.72;;;17.37;59.42
48778;BME280;34578;0.000;0.000;2023-04-20T05:08:46;96175.41;;;17.38;58.07
48778;BME280;34578;0.000;0.000;2023-04-20T05:13:46;96171.19;;;17.37;57.22
48778;BME280;34578;0.000;0.000;2023-04-20T05:18:47;96176.25;;;17.38;56.80
48778;BME280;34578;0.000;0.000;2023-04-20T05:23:47;96169.47;;;17.34;58.02
48778;BME280;34578;0.000;0.000;2023-04-20T05:28:48;96172.06;;;17.27;56.31
48778;BME280;34578;0.000;0.000;2023-04-20T05:33:48;96171.28;;;17.08;55.79
48778;BME280;34578;0.000;0.000;2023-04-20T05:38:49;96174.69;;;16.97;55.48
48778;BME280;34578;0.000;0.000;2023-04-20T05:43:49;96177.19;;;17.09;55.36
48778;BME280;34578;0.000;0.000;2023-04-20T05:48:50;96173.78;;;17.16;55.51
48778;BME280;34578;0.000;0.000;2023-04-20T05:53:50;96173.75;;;17.17;55.63
48778;BME280;34578;0.000;0.000;2023-04-20T05:58:50;96168.72;;;17.19;55.46
48778;BME280;34578;0.000;0.000;2023-04-20T06:03:51;96172.09;;;17.24;56.54
48778;BME280;34578;0.000;0.000;2023-04-20T06:08:51;96172.91;;;17.24;57.24
48778;BME280;34578;0.000;0.000;2023-04-20T06:13:52;96173.78;;;17.19;56.87
48778;BME280;34578;0.000;0.000;2023-04-20T06:18:52;96174.63;;;17.16;56.22
48778;BME280;34578;0.000;0.000;2023-04-20T06:23:53;96168.72;;;17.19;56.07
48778;BME280;34578;0.000;0.000;2023-04-20T06:28:53;96161.13;;;17.20;55.40
48778;BME280;34578;0.000;0.000;2023-04-20T06:33:53;96162.81;;;17.20;56.18
48778;BME280;34578;0.000;0.000;2023-04-20T06:38:54;96171.25;;;17.20;56.11
48778;BME280;34578;0.000;0.000;2023-04-20T06:43:54;96164.53;;;17.12;55.69
48778;BME280;34578;0.000;0.000;2023-04-20T06:48:54;96162.84;;;17.14;55.65
48778;BME280;34578;0.000;0.000;2023-04-20T06:53:55;96164.53;;;17.13;55.65
48778;BME280;34578;0.000;0.000;2023-04-20T06:58:55;96158.66;;;17.07;57.44
48778;BME280;34578;0.000;0.000;2023-04-20T07:03:56;96170.44;;;17.06;57.95
48778;BME280;34578;0.000;0.000;2023-04-20T07:08:56;96160.31;;;17.05;58.62
48778;BME280;34578;0.000;0.000;2023-04-20T07:13:56;96162.88;;;17.00;58.59
48778;BME280;34578;0.000;0.000;2023-04-20T07:18:57;96163.72;;;17.07;55.67
48778;BME280;34578;0.000;0.000;2023-04-20T07:23:57;96162.03;;;17.06;56.44
48778;BME280;34578;0.000;0.000;2023-04-20T07:28:58;96156.97;;;17.09;53.75
48778;BME280;34578;0.000;0.000;2023-04-20T07:33:58;96160.31;;;17.05;56.51
48778;BME280;34578;0.000;0.000;2023-04-20T07:38:58;96153.59;;;17.04;54.65
48778;BME280;34578;0.000;0.000;2023-04-20T07:43:59;96156.16;;;17.02;54.02
48778;BME280;34578;0.000;0.000;2023-04-20T07:48:59;96146.88;;;17.00;53.70
48778;BME280;34578;0.000;0.000;2023-04-20T07:54:00;96151.09;;;17.02;57.45
48778;BME280;34578;0.000;0.000;2023-04-20T07:59:00;96152.75;;;17.03;56.68
48778;BME280;34578;0.000;0.000;2023-04-20T08:04:00;96149.38;;;17.04;57.26
48778;BME280;34578;0.000;0.000;2023-04-20T08:09:01;96154.44;;;17.03;54.22
48778;BME280;34578;0.000;0.000;2023-04-20T08:14:03;96140.97;;;17.01;56.32
48778;BME280;34578;0.000;0.000;2023-04-20T08:19:03;96134.19;;;17.09;57.84
48778;BME280;34578;0.000;0.000;2023-04-20T08:24:09;96134.16;;;17.13;57.51
48778;BME280;34578;0.000;0.000;2023-04-20T08:29:09;96136.69;;;17.12;56.13
48778;BME280;34578;0.000;0.000;2023-04-20T08:34:10;96131.66;;;17.09;54.40
48778;BME280;34578;0.000;0.000;2023-04-20T08:39:13;96135.03;;;17.08;54.52
48778;BME280;34578;0.000;0.000;2023-04-20T08:44:14;96138.41;;;17.10;58.33
48778;BME280;34578;0.000;0.000;2023-04-20T08:49:15;96135.88;;;17.10;58.72
48778;BME280;34578;0.000;0.000;2023-04-20T08:54:16;96137.53;;;17.09;58.39
48778;BME280;34578;0.000;0.000;2023-04-20T08:59:16;96143.47;;;17.10;57.11
48778;BME280;34578;0.000;0.000;2023-04-20T09:04:18;96139.25;;;17.07;57.80
48778;BME280;34578;0.000;0.000;2023-04-20T09:09:20;96133.34;;;17.08;58.70
48778;BME280;34578;0.000;0.000;2023-04-20T09:14:21;96138.41;;;17.10;58.89
48778;BME280;34578;0.000;0.000;2023-04-20T09:19:25;96129.97;;;17.11;54.97
48778;BME280;34578;0.000;0.000;2023-04-20T09:24:31;96118.16;;;17.13;58.63
48778;BME280;34578;0.000;0.000;2023-04-20T09:29:31;96124.06;;;17.15;57.93
48778;BME280;34578;0.000;0.000;2023-04-20T09:34:42;96119.00;;;17.07;56.71
48778;BME280;34578;0.000;0.000;2023-04-20T09:39:45;96107.22;;;17.08;56.60
48778;BME280;34578;0.000;0.000;2023-04-20T09:44:45;96103.03;;;17.07;54.97
48778;BME280;34578;0.000;0.000;2023-04-20T09:49:46;96103.84;;;17.09;54.95
48778;BME280;34578;0.000;0.000;2023-04-20T09:54:50;96093.72;;;17.09;54.48
48778;BME280;34578;0.000;0.000;2023-04-20T09:59:50;96093.69;;;17.12;55.10
48778;BME280;34578;0.000;0.000;2023-04-20T10:04:56;96097.06;;;17.15;54.46
48778;BME280;34578;0.000;0.000;2023-04-20T10:10:08;96103.81;;;17.12;56.16
48778;BME280;34578;0.000;0.000;2023-04-20T10:15:09;96103.84;;;17.10;57.13
48778;BME280;34578;0.000;0.000;2023-04-20T10:25:23;96108.03;;;17.13;56.55
48778;BME280;34578;0.000;0.000;2023-04-20T10:30:27;96097.06;;;17.17;57.63
48778;BME280;34578;0.000;0.000;2023-04-20T10:35:27;96102.97;;;17.13;57.20
48778;BME280;34578;0.000;0.000;2023-04-20T10:40:29;96091.19;;;17.09;56.61
48778;BME280;34578;0.000;0.000;2023-04-20T10:45:36;96106.41;;;17.06;56.59
48778;BME280;34578;0.000;0.000;2023-04-20T10:50:40;96103.00;;;17.04;57.29
48778;BME280;34578;0.000;0.000;2023-04-20T10:55:41;96098.81;;;17.03;57.00
48778;BME280;34578;0.000;0.000;2023-04-20T11:00:41;96103.88;;;17.01;56.59
48778;BME280;34578;0.000;0.000;2023-04-20T11:05:44;96103.00;;;17.04;56.87
48778;BME280;34578;0.000;0.000;2023-04-20T11:10:49;96105.56;;;17.07;56.51
48778;BME280;34578;0.000;0.000;2023-04-20T11:15:49;96088.69;;;17.06;56.69
48778;BME280;34578;0.000;0.000;2023-04-20T11:20:51;96081.13;;;17.06;56.61
48778;BME280;34578;0.000;0.000;2023-04-20T11:25:55;96082.78;;;17.04;56.76
48778;BME280;34578;0.000;0.000;2023-04-20T11:30:56;96092.06;;;17.02;56.57
48778;BME280;34578;0.000;0.000;2023-04-20T11:35:57;96091.25;;;17.01;57.21
48778;BME280;34578;0.000;0.000;2023-04-20T11:40:58;96081.97;;;17.03;58.37
48778;BME280;34578;0.000;0.000;2023-04-20T11:46:14;96069.34;;;16.96;58.40
48778;BME280;34578;0.000;0.000;2023-04-20T11:51:15;96086.25;;;16.85;54.66
48778;BME280;34578;0.000;0.000;2023-04-20T11:56:16;96074.41;;;16.93;56.49
48778;BME280;34578;0.000;0.000;2023-04-20T12:01:16;96060.91;;;16.97;56.76
48778;BME280;34578;0.000;0.000;2023-04-20T12:06:17;96069.34;;;16.99;56.50
48778;BME280;34578;0.000;0.000;2023-04-20T12:11:17;96065.94;;;16.97;56.91
48778;BME280;34578;0.000;0.000;2023-04-20T12:16:18;96069.31;;;17.02;56.74
48778;BME280;34578;0.000;0.000;2023-04-20T12:21:18;96052.47;;;16.99;56.41
48778;BME280;34578;0.000;0.000;2023-04-20T12:26:18;96067.63;;;17.04;57.73
48778;BME280;34578;0.000;0.000;2023-04-20T12:31:20;96066.78;;;17.02;57.57
48778;BME280;34578;0.000;0.000;2023-04-20T12:36:20;96062.56;;;17.04;57.07
48778;BME280;34578;0.000;0.000;2023-04-20T12:41:21;96059.25;;;16.93;55.25
48778;BME280;34578;0.000;0.000;2023-04-20T12:46:22;96052.44;;;17.07;57.17
48778;BME280;34578;0.000;0.000;2023-04-20T12:51:22;96043.13;;;17.12;57.05
48778;BME280;34578;0.000;0.000;2023-04-20T12:56:23;96037.25;;;17.10;58.61
48778;BME280;34578;0.000;0.000;2023-04-20T13:01:23;96037.25;;;17.10;57.58
48778;BME280;34578;0.000;0.000;2023-04-20T13:06:23;96039.78;;;17.08;57.21
48778;BME280;34578;0.000;0.000;2023-04-20T13:11:24;96044.81;;;17.11;57.11
48778;BME280;34578;0.000;0.000;2023-04-20T13:16:24;96052.41;;;17.10;56.95
48778;BME280;34578;0.000;0.000;2023-04-20T13:21:24;96049.03;;;17.11;56.70
48778;BME280;34578;0.000;0.000;2023-04-20T13:26:25;96049.88;;;17.10;56.25
48778;BME280;34578;0.000;0.000;2023-04-20T13:31:25;96045.69;;;17.10;56.46
48778;BME280;34578;0.000;0.000;2023-04-20T13:36:26;96033.84;;;17.11;55.93
48778;BME280;34578;0.000;0.000;2023-04-20T13:41:27;96027.13;;;17.10;56.33
48778;BME280;34578;0.000;0.000;2023-04-20T13:46:28;96024.59;;;17.10;56.51
48778;BME280;34578;0.000;0.000;2023-04-20T13:51:28;96017.00;;;17.10;59.21
48778;BME280;34578;0.000;0.000;2023-04-20T13:56:29;96029.63;;;17.14;59.13
48778;BME280;34578;0.000;0.000;2023-04-20T14:01:29;96014.47;;;17.10;58.41
48778;BME280;34578;0.000;0.000;2023-04-20T14:06:30;96020.41;;;17.09;57.77
48778;BME280;34578;0.000;0.000;2023-04-20T14:11:31;96034.72;;;17.10;57.37
48778;BME280;34578;0.000;0.000;2023-04-20T14:16:31;96042.31;;;17.10;57.13
48778;BME280;34578;0.000;0.000;2023-04-20T14:21:32;96044.81;;;17.10;56.57
48778;BME280;34578;0.000;0.000;2023-04-20T14:26:32;96045.69;;;17.09;56.91
48778;BME280;34578;0.000;0.000;2023-04-20T14:31:32;96051.56;;;17.09;56.20
48778;BME280;34578;0.000;0.000;2023-04-20T14:36:34;96044.00;;;17.08;56.41
48778;BME280;34578;0.000;0.000;2023-04-20T14:41:35;96050.72;;;17.07;56.24
48778;BME280;34578;0.000;0.000;2023-04-20T14:46:35;96050.75;;;17.09;56.03
48778;BME280;34578;0.000;0.000;2023-04-20T14:51:36;96055.78;;;17.09;56.68
48778;BME280;34578;0.000;0.000;2023-04-20T14:56:36;96056.63;;;17.12;58.63
48778;BME280;34578;0.000;0.000;2023-04-20T15:01:36;96058.28;;;17.13;58.68
48778;BME280;34578;0.000;0.000;2023-04-20T15:06:37;96056.63;;;17.14;58.36
48778;BME280;34578;0.000;0.000;2023-04-20T15:11:37;96054.13;;;17.05;58.50
48778;BME280;34578;0.000;0.000;2023-04-20T15:16:38;96039.78;;;17.05;57.49
48778;BME280;34578;0.000;0.000;2023-04-20T15:21:38;96053.25;;;17.07;57.05
48778;BME280;34578;0.000;0.000;2023-04-20T15:26:38;96042.31;;;17.07;56.92
48778;BME280;34578;0.000;0.000;2023-04-20T15:31:39;96036.41;;;17.08;57.04
48778;BME280;34578;0.000;0.000;2023-04-20T15:36:39;96038.94;;;17.08;56.75
48778;BME280;34578;0.000;0.000;2023-04-20T15:41:40;96054.13;;;17.08;56.36
48778;BME280;34578;0.000;0.000;2023-04-20T15:46:40;96063.34;;;17.12;58.49
48778;BME280;34578;0.000;0.000;2023-04-20T15:51:41;96063.34;;;17.12;56.65
48778;BME280;34578;0.000;0.000;2023-04-20T15:56:41;96066.75;;;17.12;56.63
48778;BME280;34578;0.000;0.000;2023-04-20T16:01:41;96062.50;;;17.13;56.45
48778;BME280;34578;0.000;0.000;2023-04-20T16:06:42;96065.84;;;17.24;58.05
48778;BME280;34578;0.000;0.000;2023-04-20T16:11:42;96082.66;;;17.26;59.02
48778;BME280;34578;0.000;0.000;2023-04-20T16:16:43;96066.72;;;17.15;59.24
48778;BME280;34578;0.000;0.000;2023-04-20T16:21:43;96077.69;;;17.16;59.31
48778;BME280;34578;0.000;0.000;2023-04-20T16:26:43;96076.81;;;17.15;57.37
48778;BME280;34578;0.000;0.000;2023-04-20T16:31:45;96075.97;;;17.18;56.54
48778;BME280;34578;0.000;0.000;2023-04-20T16:36:45;96076.81;;;17.21;55.56
48778;BME280;34578;0.000;0.000;2023-04-20T16:41:46;96062.47;;;17.19;56.30
48778;BME280;34578;0.000;0.000;2023-04-20T16:46:49;96073.47;;;17.12;56.92
48778;BME280;34578;0.000;0.000;2023-04-20T16:51:50;96070.97;;;17.09;56.63
48778;BME280;34578;0.000;0.000;2023-04-20T16:56:50;96085.31;;;17.05;57.65
48778;BME280;34578;0.000;0.000;2023-04-20T17:01:52;96077.72;;;17.04;57.66
48778;BME280;34578;0.000;0.000;2023-04-20T17:06:52;96079.44;;;16.99;57.54
48778;BME280;34578;0.000;0.000;2023-04-20T17:11:52;96084.47;;;17.05;56.77
48778;BME280;34578;0.000;0.000;2023-04-20T17:16:53;96086.13;;;17.15;55.84
48778;BME280;34578;0.000;0.000;2023-04-20T17:21:57;96078.53;;;17.15;56.47
48778;BME280;34578;0.000;0.000;2023-04-20T17:26:58;96081.13;;;17.06;56.36
48778;BME280;34578;0.000;0.000;2023-04-20T17:31:58;96083.66;;;17.01;57.12
48778;BME280;34578;0.000;0.000;2023-04-20T17:36:59;96087.88;;;17.01;57.55
48778;BME280;34578;0.000;0.000;2023-04-20T17:41:59;96085.34;;;16.99;57.91
48778;BME280;34578;0.000;0.000;2023-04-20T17:47:00;96082.81;;;16.95;57.03
48778;BME280;34578;0.000;0.000;2023-04-20T17:52:01;96090.41;;;16.96;56.87
48778;BME280;34578;0.000;0.000;2023-04-20T17:57:02;96087.06;;;16.94;57.03
48778;BME280;34578;0.000;0.000;2023-04-20T18:02:02;96103.91;;;16.95;57.33
48778;BME280;34578;0.000;0.000;2023-04-20T18:07:04;96088.75;;;16.95;57.49
48778;BME280;34578;0.000;0.000;2023-04-20T18:12:05;96096.31;;;16.92;57.02
48778;BME280;34578;0.000;0.000;2023-04-20T18:17:07;96097.16;;;16.91;57.43
48778;BME280;34578;0.000;0.000;2023-04-20T18:22:08;96111.50;;;16.91;57.76
48778;BME280;34578;0.000;0.000;2023-04-20T18:27:08;96117.41;;;16.93;57.42
48778;BME280;34578;0.000;0.000;2023-04-20T18:32:08;96113.22;;;16.89;57.49
48778;BME280;34578;0.000;0.000;2023-04-20T18:37:10;96123.31;;;16.92;57.29
48778;BME280;34578;0.000;0.000;2023-04-20T18:42:11;96119.91;;;16.91;57.45
48778;BME280;34578;0.000;0.000;2023-04-20T18:47:11;96127.50;;;16.94;56.88
48778;BME280;34578;0.000;0.000;2023-04-20T18:52:12;96134.25;;;16.91;57.38
48778;BME280;34578;0.000;0.000;2023-04-20T18:57:13;96136.78;;;16.91;56.95
48778;BME280;34578;0.000;0.000;2023-04-20T19:02:13;96137.63;;;16.91;57.13
48778;BME280;34578;0.000;0.000;2023-04-20T19:07:14;96134.25;;;16.91;57.24
48778;BME280;34578;0.000;0.000;2023-04-20T19:12:14;96137.63;;;16.88;57.48
48778;BME280;34578;0.000;0.000;2023-04-20T19:17:15;96146.06;;;16.89;57.63
48778;BME280;34578;0.000;0.000;2023-04-20T19:22:15;96150.25;;;16.93;57.41
48778;BME280;34578;0.000;0.000;2023-04-20T19:27:16;96148.59;;;16.92;57.62
48778;BME280;34578;0.000;0.000;2023-04-20T19:32:17;96153.63;;;16.95;57.92
48778;BME280;34578;0.000;0.000;2023-04-20T19:37:17;96153.63;;;16.92;58.03
48778;BME280;34578;0.000;0.000;2023-04-20T19:42:18;96157.00;;;16.94;56.85
48778;BME280;34578;0.000;0.000;2023-04-20T19:47:18;96162.03;;;16.97;57.08
48778;BME280;34578;0.000;0.000;2023-04-20T19:52:19;96155.28;;;16.96;56.96
48778;BME280;34578;0.000;0.000;2023-04-20T19:57:20;96158.69;;;16.95;57.12
48778;BME280;34578;0.000;0.000;2023-04-20T20:02:20;96157.00;;;16.94;57.49
48778;BME280;34578;0.000;0.000;2023-04-20T20:07:20;96151.94;;;16.94;57.44
48778;BME280;34578;0.000;0.000;2023-04-20T20:12:21;96147.75;;;16.94;56.92
48778;BME280;34578;0.000;0.000;2023-04-20T20:17:21;96141.00;;;16.93;57.17
48778;BME280;34578;0.000;0.000;2023-04-20T20:22:21;96151.91;;;16.97;56.86
48778;BME280;34578;0.000;0.000;2023-04-20T20:27:22;96162.03;;;16.97;56.86
48778;BME280;34578;0.000;0.000;2023-04-20T20:32:22;96154.47;;;17.00;56.72
48778;BME280;34578;0.000;0.000;2023-04-20T20:37:23;96156.97;;;16.97;57.43
48778;BME280;34578;0.000;0.000;2023-04-20T20:42:24;96155.31;;;16.93;57.71
48778;BME280;34578;0.000;0.000;2023-04-20T20:47:29;96149.41;;;16.95;57.65
48778;BME280;34578;0.000;0.000;2023-04-20T20:52:30;96146.88;;;16.98;57.07
48778;BME280;34578;0.000;0.000;2023-04-20T20:57:30;96151.09;;;16.96;57.90
48778;BME280;34578;0.000;0.000;2023-04-20T21:02:31;96154.47;;;16.95;58.21
48778;BME280;34578;0.000;0.000;2023-04-20T21:07:31;96147.72;;;16.93;58.72
48778;BME280;34578;0.000;0.000;2023-04-20T21:12:32;96153.63;;;16.92;58.84
48778;BME280;34578;0.000;0.000;2023-04-20T21:17:32;96148.59;;;16.92;58.66
48778;BME280;34578;0.000;0.000;2023-04-20T21:22:32;96153.66;;;16.89;59.08
48778;BME280;34578;0.000;0.000;2023-04-20T21:27:33;96147.75;;;16.87;58.99
48778;BME280;34578;0.000;0.000;2023-04-20T21:32:33;96148.59;;;16.89;58.99
48778;BME280;34578;0.000;0.000;2023-04-20T21:37:34;96148.59;;;16.86;59.74
48778;BME280;34578;0.000;0.000;2023-04-20T21:42:34;96139.34;;;16.86;58.94
48778;BME280;34578;0.000;0.000;2023-04-20T21:47:34;96147.78;;;16.85;60.20
48778;BME280;34578;0.000;0.000;2023-04-20T21:52:35;96148.59;;;16.89;60.29
48778;BME280;34578;0.000;0.000;2023-04-20T21:57:35;96151.94;;;16.88;59.17
48778;BME280;34578;0.000;0.000;2023-04-20T22:02:35;96153.66;;;16.89;58.75
48778;BME280;34578;0.000;0.000;2023-04-20T22:07:37;96156.19;;;16.86;58.96
48778;BME280;34578;0.000;0.000;2023-04-20T22:12:38;96165.44;;;16.87;59.00
48778;BME280;34578;0.000;0.000;2023-04-20T22:17:40;96168.81;;;16.86;59.32
48778;BME280;34578;0.000;0.000;2023-04-20T22:22:40;96171.34;;;16.84;59.10
48778;BME280;34578;0.000;0.000;2023-04-20T22:27:41;96180.63;;;16.85;59.34
48778;BME280;34578;0.000;0.000;2023-04-20T22:32:41;96193.28;;;16.84;59.25
48778;BME280;34578;0.000;0.000;2023-04-20T22:37:41;96184.00;;;16.86;59.08
48778;BME280;34578;0.000;0.000;2023-04-20T22:42:42;96187.38;;;16.85;59.20
48778;BME280;34578;0.000;0.000;2023-04-20T22:47:42;96182.31;;;16.82;59.28
48778;BME280;34578;0.000;0.000;2023-04-20T22:52:42;96188.22;;;16.84;59.68
48778;BME280;34578;0.000;0.000;2023-04-20T22:57:43;96183.16;;;16.85;59.84
48778;BME280;34578;0.000;0.000;2023-04-20T23:02:43;96174.69;;;16.88;59.85
48778;BME280;34578;0.000;0.000;2023-04-20T23:07:44;96172.19;;;16.88;59.13
48778;BME280;34578;0.000;0.000;2023-04-20T23:12:44;96173.88;;;16.89;58.98
48778;BME280;34578;0.000;0.000;2023-04-20T23:17:46;96181.47;;;16.89;58.75
48778;BME280;34578;0.000;0.000;2023-04-20T23:22:47;96168.81;;;16.86;58.96
48778;BME280;34578;0.000;0.000;2023-04-20T23:27:47;96169.69;;;16.86;59.00
48778;BME280;34578;0.000;0.000;2023-04-20T23:32:48;96168.00;;;16.85;59.18
48778;BME280;34578;0.000;0.000;2023-04-20T23:37:48;96158.72;;;16.83;58.79
48778;BME280;34578;0.000;0.000;2023-04-20T23:42:49;96151.13;;;16.89;58.58
48778;BME280;34578;0.000;0.000;2023-04-20T23:47:49;96149.44;;;16.88;58.63
48778;BME280;34578;0.000;0.000;2023-04-20T23:52:50;96152.81;;;16.85;58.53
48778;BME280;34578;0.000;0.000;2023-04-20T23:57:50;96141.03;;;16.81;58.53
